Time;durP1;ratioP1;P1;durP2;ratioP2;P2;SDS_P1;SDS_P2;PMS_P1;PMS_P2;Temp;Humidity;BMP_temperature;BMP_pressure;BME280_temperature;BME280_humidity;BME280_pressure;Samples;Min_cycle;Max_cycle;Signal;HPM_P1;HPM_P2
2022/09/13 00:00:18;;;;;;;;;;;;;;;21.77;29.61;97406.47;5019367;28;2057;-77
2022/09/13 00:02:44;;;;;;;;;;;;;;;22.29;29.22;97407.78;5033433;28;1944;-76
2022/09/13 00:05:09;;;;;;;;;;;;;;;22.41;28.89;97405.31;5038678;28;888;-77
2022/09/13 00:07:35;;;;;;;;;;;;;;;22.22;28.97;97408.03;5021008;28;989;-77
2022/09/13 00:10:00;;;;;;;;;;;;;;;21.98;29.59;97415.41;5038932;28;978;-76
2022/09/13 00:12:25;;;;;;;;;;;;;;;21.84;29.54;97409.03;5039089;28;798;-76
2022/09/13 00:14:51;;;;;;;;;;;;;;;21.78;29.48;97407.25;5038948;28;1076;-76
2022/09/13 00:17:17;;;;;;;;;;;;;;;21.49;30.12;97407.47;5019936;28;2033;-76
2022/09/13 00:19:42;;;;;;;;;;;;;;;21.74;29.62;97406.59;5003602;28;919;-77
2022/09/13 00:22:07;;;;;;;;;;;;;;;22.18;29.59;97410.22;5038246;28;1906;-76
2022/09/13 00:24:33;;;;;;;;;;;;;;;22.61;28.43;97412.16;5039268;28;940;-77
2022/09/13 00:26:59;;;;;;;;;;;;;;;22.36;28.51;97407.47;5020904;28;952;-76
2022/09/13 00:29:25;;;;;;;;;;;;;;;22.07;29.02;97406.97;5038562;28;819;-77
2022/09/13 00:31:51;;;;;;;;;;;;;;;21.89;29.25;97406.84;5026651;28;1959;-77
2022/09/13 00:34:16;;;;;;;;;;;;;;;21.94;29.34;97403.44;5017417;28;753;-77
2022/09/13 00:36:41;;;;;;;;;;;;;;;21.73;29.50;97411.47;5018709;28;864;-76
2022/09/13 00:39:08;;;;;;;;;;;;;;;21.97;29.53;97405.34;5017172;28;864;-76
2022/09/13 00:41:33;;;;;;;;;;;;;;;22.25;29.16;97395.78;5001481;28;1985;-77
2022/09/13 00:43:59;;;;;;;;;;;;;;;22.36;28.69;97401.81;5018602;28;831;-77
2022/09/13 00:46:36;;;;;;;;;;;;;;;21.93;29.26;97407.50;5017070;28;998;-77
2022/09/13 00:49:11;;;;;;;;;;;;;;;21.90;29.11;97403.53;5023382;28;1995;-77
2022/09/13 00:51:36;;;;;;;;;;;;;;;21.61;29.51;97409.50;5020617;28;1190;-76
2022/09/13 00:54:02;;;;;;;;;;;;;;;21.68;29.29;97412.03;5020219;28;895;-76
2022/09/13 00:56:32;;;;;;;;;;;;;;;21.78;28.92;97407.25;5020530;28;926;-77
2022/09/13 00:58:59;;;;;;;;;;;;;;;22.25;28.70;97418.44;5020460;28;984;-77
2022/09/13 01:01:26;;;;;;;;;;;;;;;22.50;27.93;97405.34;5002456;28;2108;-76
2022/09/13 01:03:51;;;;;;;;;;;;;;;22.36;28.24;97403.84;5000348;28;1854;-77
2022/09/13 01:06:21;;;;;;;;;;;;;;;21.94;28.58;97411.91;5017875;28;745;-77
2022/09/13 01:08:48;;;;;;;;;;;;;;;21.88;28.64;97413.78;5000411;28;946;-77
2022/09/13 01:11:18;;;;;;;;;;;;;;;21.76;28.70;97416.22;5000184;28;899;-77
2022/09/13 01:13:44;;;;;;;;;;;;;;;21.65;28.96;97412.16;5000301;28;905;-77
2022/09/13 01:16:09;;;;;;;;;;;;;;;21.51;28.98;97421.97;5000066;28;2106;-77
2022/09/13 01:18:35;;;;;;;;;;;;;;;22.29;28.24;97419.09;5000757;28;955;-77
2022/09/13 01:21:11;;;;;;;;;;;;;;;22.48;27.45;97425.63;5017465;28;874;-77
2022/09/13 01:23:52;;;;;;;;;;;;;;;22.16;27.78;97424.06;5017858;28;1902;-76
2022/09/13 01:26:36;;;;;;;;;;;;;;;21.81;28.37;97435.44;5017303;28;947;-77
2022/09/13 01:29:04;;;;;;;;;;;;;;;21.72;28.38;97429.69;5017772;28;1057;-77
2022/09/13 01:31:45;;;;;;;;;;;;;;;21.84;28.24;97439.38;4999683;28;2185;-76
2022/09/13 01:34:12;;;;;;;;;;;;;;;21.87;28.74;97437.69;5017458;28;930;-76
2022/09/13 01:37:04;;;;;;;;;;;;;;;22.25;27.84;97429.00;5017353;28;951;-76
2022/09/13 01:39:35;;;;;;;;;;;;;;;22.32;27.16;97429.50;4976364;28;918;-77
2022/09/13 01:42:24;;;;;;;;;;;;;;;22.04;27.68;97430.56;4975964;28;1910;-76
2022/09/13 01:44:49;;;;;;;;;;;;;;;21.78;28.24;97435.56;4943969;29;1934;-77
2022/09/13 01:47:41;;;;;;;;;;;;;;;21.76;27.91;97433.19;4956925;29;964;-77
2022/09/13 01:50:09;;;;;;;;;;;;;;;21.77;28.08;97440.44;4880842;29;1041;-76
2022/09/13 01:53:03;;;;;;;;;;;;;;;22.32;27.23;97435.16;4881034;29;913;-76
2022/09/13 01:55:29;;;;;;;;;;;;;;;22.33;27.01;97435.97;4843296;29;1311;-76
2022/09/13 01:57:54;;;;;;;;;;;;;;;22.15;27.27;97430.19;4836651;29;1047;-76
2022/09/13 02:00:20;;;;;;;;;;;;;;;21.96;27.43;97432.84;4843702;29;882;-78
2022/09/13 02:02:47;;;;;;;;;;;;;;;21.81;27.86;97438.28;4844082;29;1978;-77
2022/09/13 02:05:27;;;;;;;;;;;;;;;21.78;27.87;97442.03;4859359;29;1222;-76
2022/09/13 02:07:55;;;;;;;;;;;;;;;21.81;27.81;97438.28;4858453;29;1916;-77
2022/09/13 02:10:28;;;;;;;;;;;;;;;22.21;27.22;97445.34;4825696;29;1233;-77
2022/09/13 02:12:54;;;;;;;;;;;;;;;22.33;26.86;97436.78;4825364;29;1062;-77
2022/09/13 02:15:20;;;;;;;;;;;;;;;22.16;26.97;97443.88;4829505;29;1067;-76
2022/09/13 02:17:47;;;;;;;;;;;;;;;22.00;27.09;97432.72;4861527;29;1190;-77
2022/09/13 02:20:18;;;;;;;;;;;;;;;21.85;27.26;97424.75;4877348;29;1040;-76
2022/09/13 02:22:45;;;;;;;;;;;;;;;21.87;27.47;97426.34;4876877;29;1994;-76
2022/09/13 02:25:12;;;;;;;;;;;;;;;21.79;27.29;97423.78;4883908;29;1344;-77
2022/09/13 02:27:37;;;;;;;;;;;;;;;22.02;27.29;97427.38;4913887;29;956;-77
2022/09/13 02:30:07;;;;;;;;;;;;;;;22.39;26.67;97422.00;4921611;29;1677;-76
2022/09/13 02:32:34;;;;;;;;;;;;;;;22.36;26.48;97421.66;4961112;28;2052;-76
2022/09/13 02:35:00;;;;;;;;;;;;;;;22.05;27.10;97429.31;4978713;28;957;-76
2022/09/13 02:37:26;;;;;;;;;;;;;;;21.80;27.49;97422.50;4995239;28;1016;-76
2022/09/13 02:39:55;;;;;;;;;;;;;;;21.69;27.70;97416.44;4978996;28;969;-76
2022/09/13 02:42:22;;;;;;;;;;;;;;;21.67;27.60;97430.28;4978198;28;2477;-77
2022/09/13 02:44:49;;;;;;;;;;;;;;;21.92;27.46;97422.94;4994727;28;918;-76
2022/09/13 02:47:14;;;;;;;;;;;;;;;22.39;26.78;97430.50;4994799;28;992;-77
2022/09/13 02:49:55;;;;;;;;;;;;;;;22.42;26.68;97426.72;4995103;28;817;-77
2022/09/13 02:52:30;;;;;;;;;;;;;;;22.23;26.81;97426.63;4994907;28;1149;-76
2022/09/13 02:55:04;;;;;;;;;;;;;;;21.72;27.48;97431.75;5016672;28;843;-76
2022/09/13 02:57:49;;;;;;;;;;;;;;;21.69;28.07;97432.66;5016566;28;1948;-76
2022/09/13 03:00:14;;;;;;;;;;;;;;;21.81;27.32;97435.44;5016490;28;913;-77
2022/09/13 03:02:40;;;;;;;;;;;;;;;22.42;26.87;97432.38;4965644;28;1910;-77
2022/09/13 03:05:05;;;;;;;;;;;;;;;22.50;26.53;97439.38;4999047;28;984;-76
2022/09/13 03:07:31;;;;;;;;;;;;;;;21.97;27.52;97436.50;4966053;28;888;-76
2022/09/13 03:10:00;;;;;;;;;;;;;;;21.85;27.69;97441.75;5016325;28;1853;-77
2022/09/13 03:12:42;;;;;;;;;;;;;;;21.64;27.85;97439.69;4999437;28;866;-77
2022/09/13 03:15:11;;;;;;;;;;;;;;;21.76;27.60;97432.38;4999062;28;906;-77
2022/09/13 03:17:40;;;;;;;;;;;;;;;21.49;28.24;97435.78;5019712;28;1944;-77
2022/09/13 03:20:08;;;;;;;;;;;;;;;21.39;28.22;97442.59;5036288;28;996;-76
2022/09/13 03:22:49;;;;;;;;;;;;;;;22.01;27.31;97442.81;5018654;28;1973;-77
2022/09/13 03:25:17;;;;;;;;;;;;;;;22.28;27.08;97440.19;5035806;28;905;-76
2022/09/13 03:27:43;;;;;;;;;;;;;;;22.03;27.44;97446.00;5035123;28;1860;-77
2022/09/13 03:30:10;;;;;;;;;;;;;;;21.97;27.44;97453.50;5036633;28;856;-76
2022/09/13 03:32:38;;;;;;;;;;;;;;;21.66;27.84;97445.69;5022074;28;852;-76
2022/09/13 03:35:03;;;;;;;;;;;;;;;21.69;27.81;97452.47;5039370;28;900;-77
2022/09/13 03:37:35;;;;;;;;;;;;;;;21.59;28.33;97454.44;5039799;28;897;-77
2022/09/13 03:40:08;;;;;;;;;;;;;;;22.10;27.80;97457.03;5022213;28;900;-77
2022/09/13 03:42:57;;;;;;;;;;;;;;;22.38;26.92;97449.53;4977224;28;1992;-77
2022/09/13 03:45:23;;;;;;;;;;;;;;;22.18;27.18;97452.72;4920813;29;1009;-76
2022/09/13 03:47:49;;;;;;;;;;;;;;;21.88;27.84;97459.88;4902087;29;1948;-77
2022/09/13 03:50:18;;;;;;;;;;;;;;;21.90;27.53;97453.75;4901813;29;1184;-76
2022/09/13 03:52:44;;;;;;;;;;;;;;;21.65;27.92;97454.63;4885939;29;990;-76
2022/09/13 03:55:09;;;;;;;;;;;;;;;21.81;27.69;97463.78;4886101;29;868;-76
2022/09/13 03:57:35;;;;;;;;;;;;;;;21.60;28.24;97464.50;4901693;29;983;-77
2022/09/13 04:00:01;;;;;;;;;;;;;;;21.75;27.78;97465.56;4882274;29;2154;-77
2022/09/13 04:02:26;;;;;;;;;;;;;;;22.12;27.38;97465.09;4920233;29;1966;-77
2022/09/13 04:04:52;;;;;;;;;;;;;;;22.40;27.01;97472.53;4936049;29;991;-76
2022/09/13 04:07:18;;;;;;;;;;;;;;;22.25;27.28;97472.28;4903525;29;1609;-76
2022/09/13 04:09:44;;;;;;;;;;;;;;;22.03;27.29;97471.47;4900943;29;1044;-77
2022/09/13 04:12:10;;;;;;;;;;;;;;;21.74;27.74;97471.72;4900995;29;697;-77
2022/09/13 04:14:36;;;;;;;;;;;;;;;21.84;27.57;97473.38;4953885;28;852;-77
2022/09/13 04:17:01;;;;;;;;;;;;;;;21.99;27.65;97476.47;4957923;29;909;-76
2022/09/13 04:19:27;;;;;;;;;;;;;;;22.24;27.07;97476.38;4957724;29;727;-76
2022/09/13 04:21:52;;;;;;;;;;;;;;;22.18;27.22;97481.06;4975816;28;1975;-76
2022/09/13 04:24:18;;;;;;;;;;;;;;;21.89;27.60;97486.16;5018178;28;716;-76
2022/09/13 04:26:44;;;;;;;;;;;;;;;21.76;27.84;97484.19;5016733;28;884;-77
2022/09/13 04:29:10;;;;;;;;;;;;;;;21.77;27.78;97490.63;5019022;28;884;-76
2022/09/13 04:31:36;;;;;;;;;;;;;;;21.81;27.62;97483.59;5018645;28;980;-77
2022/09/13 04:34:02;;;;;;;;;;;;;;;21.79;27.57;97483.25;5017606;28;1211;-76
2022/09/13 04:36:27;;;;;;;;;;;;;;;21.78;27.67;97487.31;5018604;28;880;-76
2022/09/13 04:38:53;;;;;;;;;;;;;;;21.79;27.70;97483.25;5032723;28;928;-77
2022/09/13 04:41:18;;;;;;;;;;;;;;;21.82;27.99;97493.66;5017818;28;1084;-77
2022/09/13 04:43:47;;;;;;;;;;;;;;;22.29;27.15;97492.78;5018492;28;1969;-77
2022/09/13 04:46:13;;;;;;;;;;;;;;;22.39;26.95;97496.47;5018759;28;840;-77
2022/09/13 04:48:38;;;;;;;;;;;;;;;21.99;27.48;97490.66;5018302;28;845;-77
2022/09/13 04:51:04;;;;;;;;;;;;;;;21.81;27.79;97494.91;5018433;28;1184;-77
2022/09/13 04:53:29;;;;;;;;;;;;;;;21.53;28.21;97493.84;5018386;28;914;-77
2022/09/13 04:56:04;;;;;;;;;;;;;;;21.56;28.12;97497.81;5019066;28;987;-76
2022/09/13 04:58:30;;;;;;;;;;;;;;;21.66;27.85;97491.00;4999506;28;936;-77
2022/09/13 05:01:02;;;;;;;;;;;;;;;22.01;27.56;97502.28;5016851;28;856;-77
2022/09/13 05:03:28;;;;;;;;;;;;;;;22.44;27.04;97501.56;5017134;28;1917;-76
2022/09/13 05:05:54;;;;;;;;;;;;;;;22.32;26.78;97500.34;5024493;28;1446;-77
2022/09/13 05:08:19;;;;;;;;;;;;;;;22.11;27.14;97498.31;5017062;28;1041;-77
2022/09/13 05:10:45;;;;;;;;;;;;;;;21.96;27.44;97492.34;5016834;28;1123;-77
2022/09/13 05:13:11;;;;;;;;;;;;;;;21.97;27.42;97505.28;5018208;28;853;-77
2022/09/13 05:15:36;;;;;;;;;;;;;;;21.74;27.96;97502.84;5018144;28;1105;-77
2022/09/13 05:18:02;;;;;;;;;;;;;;;21.78;27.59;97504.31;5017830;28;863;-77
2022/09/13 05:20:27;;;;;;;;;;;;;;;21.64;27.97;97507.63;5016540;28;907;-77
2022/09/13 05:22:54;;;;;;;;;;;;;;;22.18;27.30;97515.06;5017393;28;1906;-77
2022/09/13 05:25:19;;;;;;;;;;;;;;;22.36;26.97;97515.19;5016579;28;812;-77
2022/09/13 05:27:45;;;;;;;;;;;;;;;22.61;26.62;97513.47;5016587;28;1138;-77
2022/09/13 05:30:11;;;;;;;;;;;;;;;22.13;27.45;97524.16;5016275;28;931;-77
2022/09/13 05:32:36;;;;;;;;;;;;;;;21.97;27.77;97513.00;5017616;28;897;-77
2022/09/13 05:35:02;;;;;;;;;;;;;;;21.88;27.52;97508.03;5017254;28;885;-77
2022/09/13 05:37:27;;;;;;;;;;;;;;;21.92;27.74;97507.91;5017400;28;763;-77
2022/09/13 05:39:52;;;;;;;;;;;;;;;21.81;27.91;97503.41;5017299;28;968;-76
2022/09/13 05:42:18;;;;;;;;;;;;;;;21.74;27.75;97512.16;5017185;28;1910;-77
2022/09/13 05:44:43;;;;;;;;;;;;;;;21.89;27.88;97511.66;5017122;28;917;-77
2022/09/13 05:47:09;;;;;;;;;;;;;;;21.77;27.77;97508.41;5017395;28;845;-77
2022/09/13 05:49:34;;;;;;;;;;;;;;;21.79;27.72;97503.06;5017282;28;904;-77
2022/09/13 05:52:00;;;;;;;;;;;;;;;21.79;27.86;97499.44;5017524;28;1030;-77
2022/09/13 05:54:25;;;;;;;;;;;;;;;21.83;27.71;97511.44;5016955;28;827;-77
2022/09/13 05:56:53;;;;;;;;;;;;;;;21.73;28.04;97513.41;5017273;28;956;-77
2022/09/13 05:59:18;;;;;;;;;;;;;;;21.70;28.01;97511.47;5017274;28;806;-77
2022/09/13 06:01:44;;;;;;;;;;;;;;;22.34;26.99;97517.72;5017178;28;1902;-77
2022/09/13 06:04:11;;;;;;;;;;;;;;;22.16;27.92;97517.56;5017337;28;981;-74
2022/09/13 06:06:36;;;;;;;;;;;;;;;22.30;28.58;97519.88;5021410;28;1508;-71
2022/09/13 06:09:02;;;;;;;;;;;;;;;22.22;29.36;97523.44;5032762;28;1496;-74
2022/09/13 06:11:27;;;;;;;;;;;;;;;22.06;29.98;97521.53;5016891;28;1027;-74
2022/09/13 06:13:53;;;;;;;;;;;;;;;21.99;30.47;97519.75;4997672;28;907;-75
2022/09/13 06:16:18;;;;;;;;;;;;;;;22.11;30.82;97526.66;5016170;28;938;-74
2022/09/13 06:18:44;;;;;;;;;;;;;;;21.97;31.46;97529.97;5016146;28;944;-75
2022/09/13 06:21:10;;;;;;;;;;;;;;;22.06;31.59;97530.81;5016037;28;941;-74
2022/09/13 06:23:36;;;;;;;;;;;;;;;22.22;31.68;97526.25;5016655;28;1985;-75
2022/09/13 06:26:05;;;;;;;;;;;;;;;22.25;31.58;97536.69;5016282;28;910;-75
2022/09/13 06:28:31;;;;;;;;;;;;;;;22.09;31.91;97529.91;5016263;28;961;-76
2022/09/13 06:31:04;;;;;;;;;;;;;;;22.12;31.89;97522.56;5016281;28;941;-75
2022/09/13 06:33:31;;;;;;;;;;;;;;;21.90;32.25;97550.03;5016479;28;945;-75
2022/09/13 06:35:59;;;;;;;;;;;;;;;22.24;31.51;97544.41;5016070;28;902;-75
2022/09/13 06:38:24;;;;;;;;;;;;;;;22.10;32.22;97542.03;5016122;28;915;-75
2022/09/13 06:40:58;;;;;;;;;;;;;;;22.25;32.12;97537.47;5016103;28;876;-76
2022/09/13 06:43:23;;;;;;;;;;;;;;;22.43;31.69;97538.84;5033953;28;1909;-76
2022/09/13 06:45:49;;;;;;;;;;;;;;;22.59;31.38;97544.34;5035575;28;1000;-78
2022/09/13 06:48:15;;;;;;;;;;;;;;;22.56;31.68;97550.91;5036253;28;945;-78
2022/09/13 06:50:40;;;;;;;;;;;;;;;22.45;31.77;97550.53;5035894;28;1180;-74
2022/09/13 06:53:06;;;;;;;;;;;;;;;22.72;31.72;97549.91;5035261;28;1507;-75
2022/09/13 06:55:31;;;;;;;;;;;;;;;23.22;30.87;97545.16;5036404;28;1023;-75
2022/09/13 06:57:57;;;;;;;;;;;;;;;23.20;30.87;97548.44;5035781;28;985;-75
2022/09/13 07:00:23;;;;;;;;;;;;;;;23.20;30.85;97542.75;5030675;28;1711;-77
2022/09/13 07:02:51;;;;;;;;;;;;;;;23.25;31.12;97547.84;5018432;28;1902;-82
2022/09/13 07:05:19;;;;;;;;;;;;;;;23.50;30.30;97548.88;5031741;28;1848;-77
2022/09/13 07:07:45;;;;;;;;;;;;;;;23.61;30.52;97552.03;5040240;28;1273;-80
2022/09/13 07:10:10;;;;;;;;;;;;;;;23.86;30.33;97545.34;5022123;28;865;-78
2022/09/13 07:12:36;;;;;;;;;;;;;;;23.71;30.48;97548.00;5040233;28;969;-80
2022/09/13 07:15:01;;;;;;;;;;;;;;;24.00;29.58;97549.63;5021494;28;1023;-75
2022/09/13 07:17:27;;;;;;;;;;;;;;;24.11;29.81;97547.09;5040099;28;968;-80
2022/09/13 07:19:52;;;;;;;;;;;;;;;24.06;29.54;97550.56;5040217;28;933;-78
2022/09/13 07:22:17;;;;;;;;;;;;;;;23.74;29.92;97549.91;5037701;28;1906;-81
2022/09/13 07:24:43;;;;;;;;;;;;;;;23.48;30.20;97546.50;5037246;28;1729;-77
2022/09/13 07:27:08;;;;;;;;;;;;;;;22.54;31.81;97547.78;5040097;28;945;-76
2022/09/13 07:29:34;;;;;;;;;;;;;;;22.01;32.35;97544.78;5039918;28;964;-75
2022/09/13 07:31:59;;;;;;;;;;;;;;;22.06;31.96;97542.16;5040035;28;924;-75
2022/09/13 07:34:25;;;;;;;;;;;;;;;22.18;31.49;97549.06;5039647;28;911;-75
2022/09/13 07:36:51;;;;;;;;;;;;;;;22.18;31.31;97554.75;5039606;28;998;-76
2022/09/13 07:39:16;;;;;;;;;;;;;;;22.29;31.07;97549.47;5038606;28;1870;-77
2022/09/13 07:41:42;;;;;;;;;;;;;;;22.48;31.03;97544.72;4999640;28;1940;-75
2022/09/13 07:44:11;;;;;;;;;;;;;;;22.40;31.45;97548.28;5039213;28;945;-74
2022/09/13 07:46:38;;;;;;;;;;;;;;;22.53;31.41;97540.50;5038433;28;1101;-75
2022/09/13 07:49:04;;;;;;;;;;;;;;;22.40;31.53;97553.97;5038049;28;1843;-75
2022/09/13 07:51:30;;;;;;;;;;;;;;;22.58;31.30;97556.91;5039157;28;1236;-76
2022/09/13 07:53:56;;;;;;;;;;;;;;;22.55;31.39;97563.53;5035771;28;1800;-73
2022/09/13 07:56:22;;;;;;;;;;;;;;;22.54;31.71;97559.13;5036407;28;1696;-74
2022/09/13 07:58:48;;;;;;;;;;;;;;;22.41;31.83;97558.38;5018410;28;1890;-74
2022/09/13 08:01:20;;;;;;;;;;;;;;;22.47;31.40;97560.16;5036235;28;2154;-74
2022/09/13 08:03:51;;;;;;;;;;;;;;;22.28;31.71;97556.41;5036727;28;1914;-74
2022/09/13 08:06:17;;;;;;;;;;;;;;;22.41;31.64;97558.38;5038334;28;901;-74
2022/09/13 08:08:42;;;;;;;;;;;;;;;22.60;31.06;97557.25;5037126;28;869;-74
2022/09/13 08:11:09;;;;;;;;;;;;;;;22.49;31.30;97562.53;5002958;28;961;-74
2022/09/13 08:13:34;;;;;;;;;;;;;;;22.47;31.46;97559.34;5036618;28;973;-74
2022/09/13 08:16:03;;;;;;;;;;;;;;;22.52;31.19;97553.09;5035871;28;1755;-74
2022/09/13 08:18:29;;;;;;;;;;;;;;;22.50;31.23;97555.63;5036615;28;2343;-75
2022/09/13 08:20:55;;;;;;;;;;;;;;;22.80;31.09;97549.19;5038802;28;958;-77
2022/09/13 08:23:20;;;;;;;;;;;;;;;22.97;30.37;97563.16;5037076;28;1949;-75
2022/09/13 08:25:46;;;;;;;;;;;;;;;22.62;31.01;97549.06;5037281;28;1481;-76
2022/09/13 08:28:15;;;;;;;;;;;;;;;22.19;31.62;97550.66;5033070;28;1773;-76
2022/09/13 08:30:42;;;;;;;;;;;;;;;22.39;31.30;97546.72;5016733;28;1583;-75
2022/09/13 08:33:07;;;;;;;;;;;;;;;22.43;31.35;97544.53;5015618;28;1936;-77
2022/09/13 08:35:33;;;;;;;;;;;;;;;22.40;31.05;97548.28;5002241;28;990;-75
2022/09/13 08:37:59;;;;;;;;;;;;;;;21.90;32.15;97538.72;5016380;28;927;-76
2022/09/13 08:40:26;;;;;;;;;;;;;;;21.88;32.20;97541.22;4998245;28;1562;-76
2022/09/13 08:42:51;;;;;;;;;;;;;;;21.99;31.74;97536.75;4999087;28;1918;-76
2022/09/13 08:45:17;;;;;;;;;;;;;;;22.33;31.07;97538.81;5015750;28;1274;-78
2022/09/13 08:47:43;;;;;;;;;;;;;;;21.94;31.71;97533.72;5016188;28;1866;-77
2022/09/13 08:50:11;;;;;;;;;;;;;;;22.04;31.31;97539.00;5000245;28;1216;-77
2022/09/13 08:52:55;;;;;;;;;;;;;;;21.89;31.37;97528.63;4999931;28;873;-79
2022/09/13 08:55:44;;;;;;;;;;;;;;;22.02;30.83;97530.19;5016309;28;801;-77
2022/09/13 08:58:30;;;;;;;;;;;;;;;21.95;31.15;97530.41;5016488;28;989;-77
2022/09/13 09:01:03;;;;;;;;;;;;;;;22.12;30.84;97528.22;5020393;28;859;-77
2022/09/13 09:03:28;;;;;;;;;;;;;;;21.85;30.85;97523.88;5037763;28;1926;-77
2022/09/13 09:05:54;;;;;;;;;;;;;;;21.99;30.89;97528.25;5037848;28;1065;-77
2022/09/13 09:08:26;;;;;;;;;;;;;;;22.06;30.46;97515.88;5020286;28;870;-77
2022/09/13 09:10:52;;;;;;;;;;;;;;;21.89;30.98;97520.16;5037804;28;727;-77
2022/09/13 09:13:28;;;;;;;;;;;;;;;22.04;30.31;97521.22;5020210;28;806;-77
2022/09/13 09:15:58;;;;;;;;;;;;;;;22.04;30.43;97512.72;5020371;28;908;-77
2022/09/13 09:18:24;;;;;;;;;;;;;;;21.77;31.00;97508.41;5020371;28;768;-78
2022/09/13 09:20:54;;;;;;;;;;;;;;;21.88;30.57;97508.03;5020198;28;728;-77
2022/09/13 09:23:21;;;;;;;;;;;;;;;21.68;31.03;97505.47;4995536;28;1902;-77
2022/09/13 09:25:46;;;;;;;;;;;;;;;21.94;30.47;97511.84;4979605;28;929;-77
2022/09/13 09:28:13;;;;;;;;;;;;;;;21.76;30.72;97503.19;4963410;28;931;-77
2022/09/13 09:30:51;;;;;;;;;;;;;;;21.62;30.99;97507.31;4979596;28;760;-77
2022/09/13 09:33:23;;;;;;;;;;;;;;;21.73;30.73;97507.72;4995407;28;902;-77
2022/09/13 09:36:00;;;;;;;;;;;;;;;21.77;30.81;97508.41;4979349;28;732;-77
2022/09/13 09:38:32;;;;;;;;;;;;;;;21.74;30.74;97509.31;4963392;28;1001;-77
2022/09/13 09:40:58;;;;;;;;;;;;;;;21.83;30.80;97511.44;4995438;28;728;-77
2022/09/13 09:43:26;;;;;;;;;;;;;;;21.85;30.63;97509.72;4979413;28;1981;-77
2022/09/13 09:45:52;;;;;;;;;;;;;;;21.83;30.33;97506.56;4979096;28;948;-77
2022/09/13 09:48:19;;;;;;;;;;;;;;;21.71;30.57;97506.59;4979424;28;906;-77
2022/09/13 09:50:46;;;;;;;;;;;;;;;21.78;30.62;97514.84;4957205;28;1162;-76
2022/09/13 09:53:15;;;;;;;;;;;;;;;21.86;30.34;97510.50;4946117;28;1136;-77
2022/09/13 09:55:44;;;;;;;;;;;;;;;21.71;30.55;97515.91;5016485;28;1221;-77
2022/09/13 09:58:11;;;;;;;;;;;;;;;21.54;30.93;97517.28;5017257;28;828;-77
2022/09/13 10:00:54;;;;;;;;;;;;;;;21.41;31.17;97513.72;4999925;28;910;-77
2022/09/13 10:03:23;;;;;;;;;;;;;;;21.72;30.42;97511.81;4999596;28;1903;-77
2022/09/13 10:05:48;;;;;;;;;;;;;;;21.56;30.91;97509.16;4999354;28;1083;-77
2022/09/13 10:08:27;;;;;;;;;;;;;;;21.71;30.36;97518.75;4999632;28;963;-77
2022/09/13 10:10:53;;;;;;;;;;;;;;;21.75;30.35;97521.44;5016854;28;905;-77
2022/09/13 10:13:19;;;;;;;;;;;;;;;21.73;30.44;97521.88;5017022;28;692;-77
2022/09/13 10:15:52;;;;;;;;;;;;;;;21.52;30.83;97516.97;4999563;28;816;-77
2022/09/13 10:18:19;;;;;;;;;;;;;;;21.59;30.57;97520.34;4999684;28;1433;-77
2022/09/13 10:20:59;;;;;;;;;;;;;;;21.59;30.75;97519.53;4983570;28;1484;-77
2022/09/13 10:23:26;;;;;;;;;;;;;;;21.74;30.32;97514.97;4999350;28;1965;-77
2022/09/13 10:26:05;;;;;;;;;;;;;;;21.63;30.76;97511.72;5017053;28;740;-77
2022/09/13 10:28:41;;;;;;;;;;;;;;;21.71;30.70;97515.91;4999630;28;958;-77
2022/09/13 10:31:08;;;;;;;;;;;;;;;21.73;30.28;97519.06;5015962;28;1314;-77
2022/09/13 10:33:35;;;;;;;;;;;;;;;21.58;30.64;97513.09;4983233;28;852;-77
2022/09/13 10:36:02;;;;;;;;;;;;;;;21.52;30.76;97514.94;5016038;28;720;-78
2022/09/13 10:38:27;;;;;;;;;;;;;;;21.51;30.80;97512.56;4999402;28;779;-77
2022/09/13 10:40:53;;;;;;;;;;;;;;;21.52;30.81;97514.13;5020827;28;1040;-77
2022/09/13 10:43:20;;;;;;;;;;;;;;;21.42;30.96;97503.97;5003340;28;1907;-77
2022/09/13 10:45:50;;;;;;;;;;;;;;;21.48;31.08;97507.78;5003867;28;755;-77
2022/09/13 10:48:16;;;;;;;;;;;;;;;21.56;30.71;97503.50;5003486;28;890;-77
2022/09/13 10:50:58;;;;;;;;;;;;;;;21.61;30.89;97507.78;5003253;28;1063;-77
2022/09/13 10:53:37;;;;;;;;;;;;;;;21.51;30.83;97504.06;5020632;28;692;-77
2022/09/13 10:56:03;;;;;;;;;;;;;;;21.54;30.85;97508.78;5002995;28;716;-77
2022/09/13 10:58:29;;;;;;;;;;;;;;;21.59;30.88;97502.56;5003088;28;795;-77
2022/09/13 11:00:54;;;;;;;;;;;;;;;21.61;30.48;97499.28;5020528;28;806;-77
2022/09/13 11:03:26;;;;;;;;;;;;;;;21.56;30.71;97504.28;4998798;28;1903;-77
2022/09/13 11:05:54;;;;;;;;;;;;;;;21.66;30.64;97502.34;4998561;28;907;-77
2022/09/13 11:08:26;;;;;;;;;;;;;;;21.61;30.41;97491.59;4982667;28;879;-77
2022/09/13 11:14:45;;;;;;;;;;;;;;;21.45;30.98;97489.69;4998733;28;755;-77
2022/09/13 11:17:29;;;;;;;;;;;;;;;21.42;30.96;97487.00;4998598;28;957;-77
2022/09/13 11:19:54;;;;;;;;;;;;;;;21.47;31.00;97489.25;4998747;28;1096;-77
2022/09/13 11:22:38;;;;;;;;;;;;;;;21.36;31.24;97488.81;4998179;28;1969;-77
2022/09/13 11:25:13;;;;;;;;;;;;;;;21.67;30.54;97486.91;4998213;28;875;-77
2022/09/13 11:27:38;;;;;;;;;;;;;;;21.59;30.79;97482.75;4981886;28;794;-77
2022/09/13 11:30:11;;;;;;;;;;;;;;;21.67;30.32;97484.09;4981908;28;1248;-77
2022/09/13 11:32:46;;;;;;;;;;;;;;;21.64;30.49;97476.50;4981808;28;1102;-77
2022/09/13 11:35:27;;;;;;;;;;;;;;;21.69;30.47;97467.41;4999245;28;973;-77
2022/09/13 11:37:53;;;;;;;;;;;;;;;21.65;30.67;97472.41;5019716;28;973;-77
2022/09/13 11:40:24;;;;;;;;;;;;;;;21.41;31.12;97474.09;5018932;28;1004;-77
2022/09/13 11:42:50;;;;;;;;;;;;;;;21.49;30.99;97481.06;5019798;28;1910;-77
2022/09/13 11:45:28;;;;;;;;;;;;;;;21.42;30.79;97481.31;5019757;28;755;-77
2022/09/13 11:48:03;;;;;;;;;;;;;;;21.67;30.47;97475.59;5002114;28;732;-78
2022/09/13 11:50:32;;;;;;;;;;;;;;;21.61;30.41;97470.97;5022410;28;1030;-77
2022/09/13 11:53:09;;;;;;;;;;;;;;;21.83;30.17;97478.25;5039329;28;869;-77
2022/09/13 11:55:55;;;;;;;;;;;;;;;21.63;30.58;97474.91;5039160;28;764;-77
2022/09/13 11:58:25;;;;;;;;;;;;;;;21.71;30.50;97476.25;5021453;28;939;-77
2022/09/13 12:00:56;;;;;;;;;;;;;;;21.55;30.86;97485.72;5021264;28;832;-77
2022/09/13 12:03:36;;;;;;;;;;;;;;;21.47;30.74;97489.25;5020844;28;1983;-77
2022/09/13 12:06:14;;;;;;;;;;;;;;;21.64;30.49;97482.16;5021419;28;1225;-77
2022/09/13 12:08:44;;;;;;;;;;;;;;;21.40;30.81;97480.97;5021215;28;740;-77
2022/09/13 12:11:41;;;;;;;;;;;;;;;21.52;30.92;97483.00;5020847;28;708;-77
2022/09/13 12:14:10;;;;;;;;;;;;;;;21.50;30.80;97476.97;4958255;29;902;-77
2022/09/13 12:16:39;;;;;;;;;;;;;;;21.38;30.91;97475.00;4958488;29;901;-77
2022/09/13 12:19:25;;;;;;;;;;;;;;;21.47;30.55;97483.56;4958226;29;882;-77
2022/09/13 12:21:50;;;;;;;;;;;;;;;21.40;31.11;97478.13;4958086;29;1903;-77
2022/09/13 12:24:20;;;;;;;;;;;;;;;21.36;30.80;97483.16;4941674;29;1358;-77
2022/09/13 12:27:24;;;;;;;;;;;;;;;21.33;30.97;97479.97;4942002;29;1224;-77
2022/09/13 12:29:50;;;;;;;;;;;;;;;21.35;30.78;97475.88;4900977;29;984;-77
2022/09/13 12:32:15;;;;;;;;;;;;;;;21.39;30.73;97482.22;4901098;29;1147;-77
2022/09/13 12:34:42;;;;;;;;;;;;;;;21.27;30.87;97481.78;4901016;29;1164;-77
2022/09/13 12:37:14;;;;;;;;;;;;;;;21.18;31.25;97478.03;4885065;29;1245;-77
2022/09/13 12:40:03;;;;;;;;;;;;;;;21.38;30.82;97487.09;4900730;29;838;-76
2022/09/13 12:42:28;;;;;;;;;;;;;;;21.46;30.67;97477.13;4882181;29;1907;-76
2022/09/13 12:45:00;;;;;;;;;;;;;;;21.33;30.93;97477.13;4882000;29;1319;-77
2022/09/13 12:47:33;;;;;;;;;;;;;;;21.35;30.79;97484.38;4882100;29;984;-76
2022/09/13 12:49:58;;;;;;;;;;;;;;;21.41;30.83;97479.75;4874394;29;931;-77
2022/09/13 12:52:27;;;;;;;;;;;;;;;21.41;30.54;97488.25;4881774;29;1284;-77
2022/09/13 12:55:11;;;;;;;;;;;;;;;21.28;30.90;97494.66;4882292;29;1234;-76
2022/09/13 12:57:49;;;;;;;;;;;;;;;21.33;30.91;97494.13;4881873;29;702;-77
2022/09/13 13:00:21;;;;;;;;;;;;;;;21.30;31.17;97492.22;4880000;29;1044;-76
2022/09/13 13:02:52;;;;;;;;;;;;;;;21.35;30.92;97496.50;4935049;29;1961;-77
2022/09/13 13:05:17;;;;;;;;;;;;;;;21.44;30.64;97496.59;4947944;28;864;-77
2022/09/13 13:07:45;;;;;;;;;;;;;;;21.45;30.54;97494.53;4957647;29;1020;-76
2022/09/13 13:10:43;;;;;;;;;;;;;;;21.43;30.40;97499.88;4959708;28;845;-76
2022/09/13 13:13:12;;;;;;;;;;;;;;;21.29;30.95;97509.59;4918853;29;944;-77
2022/09/13 13:15:37;;;;;;;;;;;;;;;21.22;31.00;97498.53;4919143;29;991;-77